sensor_id;sensor_type;location;lat;lon;timestamp;pressure;altitude;pressure_sealevel;temperature;humidity
9335;BME280;4706;41.844;26.082;2022-11-20T00:01:25;100458.69;;;19.93;99.48
9335;BME280;4706;41.844;26.082;2022-11-20T00:03:52;100464.72;;;19.95;99.58
9335;BME280;4706;41.844;26.082;2022-11-20T00:06:19;100475.53;;;19.96;99.16
9335;BME280;4706;41.844;26.082;2022-11-20T00:08:46;100477.81;;;19.91;99.31
9335;BME280;4706;41.844;26.082;2022-11-20T00:11:19;100471.13;;;19.95;99.12
9335;BME280;4706;41.844;26.082;2022-11-20T00:13:46;100469.13;;;19.96;98.56
9335;BME280;4706;41.844;26.082;2022-11-20T00:16:14;100479.56;;;19.99;98.75
9335;BME280;4706;41.844;26.082;2022-11-20T00:18:40;100477.97;;;19.98;98.61
9335;BME280;4706;41.844;26.082;2022-11-20T00:21:13;100473.44;;;19.93;98.94
9335;BME280;4706;41.844;26.082;2022-11-20T00:23:40;100481.03;;;19.93;98.87
9335;BME280;4706;41.844;26.082;2022-11-20T00:26:09;100487.88;;;19.95;99.28
9335;BME280;4706;41.844;26.082;2022-11-20T00:28:35;100485.53;;;19.97;99.22
9335;BME280;4706;41.844;26.082;2022-11-20T00:31:10;100487.78;;;19.92;99.53
9335;BME280;4706;41.844;26.082;2022-11-20T00:33:36;100490.13;;;19.89;99.24
9335;BME280;4706;41.844;26.082;2022-11-20T00:36:15;100482.22;;;19.92;99.21
9335;BME280;4706;41.844;26.082;2022-11-20T00:38:41;100485.72;;;19.88;99.19
9335;BME280;4706;41.844;26.082;2022-11-20T00:41:09;100481.31;;;19.87;99.26
9335;BME280;4706;41.844;26.082;2022-11-20T00:43:37;100489.63;;;19.84;99.09
9335;BME280;4706;41.844;26.082;2022-11-20T00:46:12;100496.53;;;19.90;98.77
9335;BME280;4706;41.844;26.082;2022-11-20T00:48:38;100488.53;;;19.88;98.82
9335;BME280;4706;41.844;26.082;2022-11-20T00:51:04;100484.94;;;19.88;98.84
9335;BME280;4706;41.844;26.082;2022-11-20T00:53:29;100489.25;;;19.85;98.75
9335;BME280;4706;41.844;26.082;2022-11-20T00:56:00;100480.00;;;19.81;98.35
9335;BME280;4706;41.844;26.082;2022-11-20T00:58:34;100489.25;;;19.85;97.84
9335;BME280;4706;41.844;26.082;2022-11-20T01:01:02;100481.31;;;19.87;97.55
9335;BME280;4706;41.844;26.082;2022-11-20T01:03:27;100473.34;;;19.86;97.64
9335;BME280;4706;41.844;26.082;2022-11-20T01:05:59;100467.75;;;19.86;97.33
9335;BME280;4706;41.844;26.082;2022-11-20T01:08:28;100459.38;;;19.86;96.96
9335;BME280;4706;41.844;26.082;2022-11-20T01:10:58;100468.56;;;19.86;96.84
9335;BME280;4706;41.844;26.082;2022-11-20T01:13:24;100467.75;;;19.86;96.00
9335;BME280;4706;41.844;26.082;2022-11-20T01:16:10;100469.06;;;19.92;95.05
9335;BME280;4706;41.844;26.082;2022-11-20T01:18:37;100468.78;;;19.97;95.00
9335;BME280;4706;41.844;26.082;2022-11-20T01:21:12;100475.16;;;19.98;94.61
9335;BME280;4706;41.844;26.082;2022-11-20T01:23:39;100451.03;;;19.89;94.90
9335;BME280;4706;41.844;26.082;2022-11-20T01:26:08;100464.72;;;19.95;95.46
9335;BME280;4706;41.844;26.082;2022-11-20T01:28:34;100449.00;;;19.86;95.64
9335;BME280;4706;41.844;26.082;2022-11-20T01:31:00;100456.22;;;19.87;95.62
9335;BME280;4706;41.844;26.082;2022-11-20T01:33:26;100456.44;;;19.79;95.87
9335;BME280;4706;41.844;26.082;2022-11-20T01:35:52;100450.31;;;19.73;95.63
9335;BME280;4706;41.844;26.082;2022-11-20T01:38:18;100446.72;;;19.73;95.71
9335;BME280;4706;41.844;26.082;2022-11-20T01:40:45;100443.03;;;19.69;96.33
9335;BME280;4706;41.844;26.082;2022-11-20T01:43:19;100441.06;;;19.69;96.58
9335;BME280;4706;41.844;26.082;2022-11-20T01:48:17;100442.97;;;19.65;96.17
9335;BME280;4706;41.844;26.082;2022-11-20T01:50:44;100426.34;;;19.53;95.50
9335;BME280;4706;41.844;26.082;2022-11-20T01:53:13;100434.50;;;19.61;94.45
9335;BME280;4706;41.844;26.082;2022-11-20T01:55:47;100438.34;;;19.73;93.15
9335;BME280;4706;41.844;26.082;2022-11-20T01:58:15;100437.16;;;19.74;92.48
9335;BME280;4706;41.844;26.082;2022-11-20T02:00:42;100445.63;;;19.77;91.48
9335;BME280;4706;41.844;26.082;2022-11-20T02:03:11;100456.13;;;19.84;90.10
9335;BME280;4706;41.844;26.082;2022-11-20T02:05:47;100455.47;;;19.91;90.22
9335;BME280;4706;41.844;26.082;2022-11-20T02:08:15;100455.91;;;19.93;89.62
9335;BME280;4706;41.844;26.082;2022-11-20T02:10:41;100455.19;;;19.96;88.95
9335;BME280;4706;41.844;26.082;2022-11-20T02:13:07;100454.88;;;20.01;88.64
9335;BME280;4706;41.844;26.082;2022-11-20T02:15:52;100454.22;;;20.07;87.43
9335;BME280;4706;41.844;26.082;2022-11-20T02:18:19;100451.06;;;20.09;87.25
9335;BME280;4706;41.844;26.082;2022-11-20T02:20:48;100441.13;;;20.11;86.87
9335;BME280;4706;41.844;26.082;2022-11-20T02:23:24;100448.34;;;20.12;87.06
9335;BME280;4706;41.844;26.082;2022-11-20T02:25:52;100446.38;;;20.13;87.47
9335;BME280;4706;41.844;26.082;2022-11-20T02:28:18;100439.53;;;20.10;87.78
9335;BME280;4706;41.844;26.082;2022-11-20T02:30:44;100447.47;;;20.08;87.14
9335;BME280;4706;41.844;26.082;2022-11-20T02:33:10;100445.56;;;20.12;86.48
9335;BME280;4706;41.844;26.082;2022-11-20T02:38:02;100439.22;;;20.16;87.63
9335;BME280;4706;41.844;26.082;2022-11-20T02:40:28;100444.72;;;20.12;87.40
9335;BME280;4706;41.844;26.082;2022-11-20T02:42:57;100438.41;;;20.15;87.67
9335;BME280;4706;41.844;26.082;2022-11-20T02:45:24;100443.91;;;20.11;87.13
9335;BME280;4706;41.844;26.082;2022-11-20T02:47:50;100435.84;;;20.06;88.05
9335;BME280;4706;41.844;26.082;2022-11-20T02:50:16;100437.09;;;20.09;87.60
9335;BME280;4706;41.844;26.082;2022-11-20T02:52:42;100433.94;;;20.10;87.81
9335;BME280;4706;41.844;26.082;2022-11-20T02:55:07;100439.91;;;20.09;88.05
9335;BME280;4706;41.844;26.082;2022-11-20T02:57:33;100433.13;;;20.10;88.20
9335;BME280;4706;41.844;26.082;2022-11-20T02:59:58;100434.66;;;20.07;88.21
9335;BME280;4706;41.844;26.082;2022-11-20T03:02:24;100421.09;;;20.06;88.16
9335;BME280;4706;41.844;26.082;2022-11-20T03:04:49;100425.88;;;20.05;88.41
9335;BME280;4706;41.844;26.082;2022-11-20T03:07:15;100427.41;;;20.03;88.77
9335;BME280;4706;41.844;26.082;2022-11-20T03:09:41;100424.16;;;20.01;88.92
9335;BME280;4706;41.844;26.082;2022-11-20T03:12:06;100428.88;;;19.97;89.06
9335;BME280;4706;41.844;26.082;2022-11-20T03:14:32;100426.06;;;19.97;88.87
9335;BME280;4706;41.844;26.082;2022-11-20T03:16:57;100424.03;;;19.94;88.92
9335;BME280;4706;41.844;26.082;2022-11-20T03:19:23;100414.41;;;19.91;88.46
9335;BME280;4706;41.844;26.082;2022-11-20T03:21:48;100415.28;;;19.95;87.75
9335;BME280;4706;41.844;26.082;2022-11-20T03:24:14;100421.00;;;20.02;86.65
9335;BME280;4706;41.844;26.082;2022-11-20T03:26:40;100424.31;;;20.08;86.88
9335;BME280;4706;41.844;26.082;2022-11-20T03:29:06;100429.09;;;20.07;87.12
9335;BME280;4706;41.844;26.082;2022-11-20T03:31:34;100422.75;;;20.10;86.73
9335;BME280;4706;41.844;26.082;2022-11-20T03:34:00;100434.38;;;20.12;86.52
9335;BME280;4706;41.844;26.082;2022-11-20T03:36:27;100426.75;;;20.09;86.55
9335;BME280;4706;41.844;26.082;2022-11-20T03:38:54;100426.59;;;20.02;87.15
9335;BME280;4706;41.844;26.082;2022-11-20T03:41:22;100418.38;;;20.09;87.03
9335;BME280;4706;41.844;26.082;2022-11-20T03:44:00;100418.28;;;20.06;87.59
9335;BME280;4706;41.844;26.082;2022-11-20T03:46:26;100409.91;;;20.06;87.53
9335;BME280;4706;41.844;26.082;2022-11-20T03:48:52;100407.13;;;20.06;86.47
9335;BME280;4706;41.844;26.082;2022-11-20T03:53:44;100398.38;;;20.07;85.81
9335;BME280;4706;41.844;26.082;2022-11-20T03:56:11;100408.81;;;20.10;85.22
9335;BME280;4706;41.844;26.082;2022-11-20T03:58:38;100411.22;;;20.12;85.08
9335;BME280;4706;41.844;26.082;2022-11-20T04:01:25;100403.69;;;20.12;84.83
9335;BME280;4706;41.844;26.082;2022-11-20T04:03:52;100414.06;;;20.16;85.00
9335;BME280;4706;41.844;26.082;2022-11-20T04:06:21;100410.06;;;20.13;84.93
9335;BME280;4706;41.844;26.082;2022-11-20T04:08:47;100418.50;;;20.17;85.22
9335;BME280;4706;41.844;26.082;2022-11-20T04:11:15;100400.44;;;20.10;85.70
9335;BME280;4706;41.844;26.082;2022-11-20T04:13:42;100401.22;;;20.11;85.76
9335;BME280;4706;41.844;26.082;2022-11-20T04:16:10;100365.69;;;19.88;85.92
9335;BME280;4706;41.844;26.082;2022-11-20T04:18:36;100405.13;;;20.06;86.07
9335;BME280;4706;41.844;26.082;2022-11-20T04:21:02;100403.47;;;20.02;86.69
9335;BME280;4706;41.844;26.082;2022-11-20T04:23:28;100391.41;;;19.98;87.02
9335;BME280;4706;41.844;26.082;2022-11-20T04:25:54;100398.47;;;19.92;87.27
9335;BME280;4706;41.844;26.082;2022-11-20T04:28:20;100389.63;;;19.89;87.47
9335;BME280;4706;41.844;26.082;2022-11-20T04:30:46;100396.84;;;19.91;87.39
9335;BME280;4706;41.844;26.082;2022-11-20T04:33:11;100395.59;;;19.88;87.67
9335;BME280;4706;41.844;26.082;2022-11-20T04:35:37;100379.16;;;19.83;87.69
9335;BME280;4706;41.844;26.082;2022-11-20T04:38:03;100384.75;;;19.83;87.88
9335;BME280;4706;41.844;26.082;2022-11-20T04:40:29;100380.31;;;19.82;87.83
9335;BME280;4706;41.844;26.082;2022-11-20T04:42:55;100381.44;;;19.77;88.45
9335;BME280;4706;41.844;26.082;2022-11-20T04:45:22;100383.88;;;19.79;88.31
9335;BME280;4706;41.844;26.082;2022-11-20T04:47:48;100386.22;;;19.77;88.02
9335;BME280;4706;41.844;26.082;2022-11-20T04:50:14;100382.16;;;19.74;87.95
9335;BME280;4706;41.844;26.082;2022-11-20T04:52:39;100395.84;;;19.79;87.86
9335;BME280;4706;41.844;26.082;2022-11-20T04:55:05;100393.03;;;19.79;87.92
9335;BME280;4706;41.844;26.082;2022-11-20T04:57:31;100376.50;;;19.71;87.73
9335;BME280;4706;41.844;26.082;2022-11-20T04:59:56;100391.78;;;19.77;87.89
9335;BME280;4706;41.844;26.082;2022-11-20T05:02:22;100387.75;;;19.74;87.92
9335;BME280;4706;41.844;26.082;2022-11-20T05:04:48;100383.78;;;19.75;87.97
9335;BME280;4706;41.844;26.082;2022-11-20T05:07:13;100392.59;;;19.77;87.44
9335;BME280;4706;41.844;26.082;2022-11-20T05:09:39;100392.66;;;19.81;87.15
9335;BME280;4706;41.844;26.082;2022-11-20T05:12:07;100385.56;;;19.83;87.09
9335;BME280;4706;41.844;26.082;2022-11-20T05:14:32;100387.00;;;19.77;87.07
9335;BME280;4706;41.844;26.082;2022-11-20T05:16:58;100387.31;;;19.72;87.84
9335;BME280;4706;41.844;26.082;2022-11-20T05:19:23;100386.22;;;19.77;87.80
9335;BME280;4706;41.844;26.082;2022-11-20T05:21:49;100395.22;;;19.70;88.08
9335;BME280;4706;41.844;26.082;2022-11-20T05:24:14;100401.34;;;19.76;88.56
9335;BME280;4706;41.844;26.082;2022-11-20T05:26:40;100393.78;;;19.76;88.51
9335;BME280;4706;41.844;26.082;2022-11-20T05:29:05;100391.13;;;19.83;88.08
9335;BME280;4706;41.844;26.082;2022-11-20T05:31:31;100401.91;;;19.85;88.22
9335;BME280;4706;41.844;26.082;2022-11-20T05:33:57;100402.44;;;19.91;88.19
9335;BME280;4706;41.844;26.082;2022-11-20T05:36:22;100396.84;;;19.91;88.06
9335;BME280;4706;41.844;26.082;2022-11-20T05:38:48;100398.53;;;19.95;87.24
9335;BME280;4706;41.844;26.082;2022-11-20T05:41:18;100391.13;;;20.03;86.37
9335;BME280;4706;41.844;26.082;2022-11-20T05:43:46;100377.88;;;20.00;86.33
9335;BME280;4706;41.844;26.082;2022-11-20T05:46:14;100370.03;;;20.05;86.74
9335;BME280;4706;41.844;26.082;2022-11-20T05:48:41;100364.81;;;20.04;87.13
9335;BME280;4706;41.844;26.082;2022-11-20T05:51:10;100377.47;;;19.98;87.69
9335;BME280;4706;41.844;26.082;2022-11-20T05:53:36;100375.75;;;19.93;87.97
9335;BME280;4706;41.844;26.082;2022-11-20T05:56:21;100374.06;;;19.88;88.10
9335;BME280;4706;41.844;26.082;2022-11-20T05:58:47;100376.44;;;19.86;88.00
9335;BME280;4706;41.844;26.082;2022-11-20T06:01:21;100371.94;;;19.82;87.58
9335;BME280;4706;41.844;26.082;2022-11-20T06:03:47;100381.66;;;19.88;87.71
9335;BME280;4706;41.844;26.082;2022-11-20T06:06:16;100386.84;;;19.89;87.24
9335;BME280;4706;41.844;26.082;2022-11-20T06:08:41;100388.84;;;19.89;87.26
9335;BME280;4706;41.844;26.082;2022-11-20T06:11:09;100390.03;;;19.88;87.27
9335;BME280;4706;41.844;26.082;2022-11-20T06:13:36;100400.88;;;19.93;86.81
9335;BME280;4706;41.844;26.082;2022-11-20T06:16:02;100400.59;;;19.98;85.94
9335;BME280;4706;41.844;26.082;2022-11-20T06:18:28;100405.81;;;20.00;86.35
9335;BME280;4706;41.844;26.082;2022-11-20T06:21:21;100407.38;;;19.97;86.09
9335;BME280;4706;41.844;26.082;2022-11-20T06:23:47;100417.34;;;19.98;86.34
9335;BME280;4706;41.844;26.082;2022-11-20T06:26:16;100406.91;;;19.95;86.52
9335;BME280;4706;41.844;26.082;2022-11-20T06:28:42;100423.97;;;19.90;86.62
9335;BME280;4706;41.844;26.082;2022-11-20T06:31:10;100430.84;;;19.96;86.41
9335;BME280;4706;41.844;26.082;2022-11-20T06:33:37;100421.25;;;19.94;86.72
9335;BME280;4706;41.844;26.082;2022-11-20T06:36:03;100420.41;;;19.93;85.65
9335;BME280;4706;41.844;26.082;2022-11-20T06:38:29;100419.84;;;20.03;84.79
9335;BME280;4706;41.844;26.082;2022-11-20T06:40:55;100423.56;;;20.11;84.17
9335;BME280;4706;41.844;26.082;2022-11-20T06:43:21;100434.38;;;20.12;84.38
9335;BME280;4706;41.844;26.082;2022-11-20T06:45:54;100435.94;;;20.10;84.89
9335;BME280;4706;41.844;26.082;2022-11-20T06:48:20;100438.19;;;20.04;85.78
9335;BME280;4706;41.844;26.082;2022-11-20T06:50:46;100440.03;;;19.97;85.97
9335;BME280;4706;41.844;26.082;2022-11-20T06:53:11;100434.31;;;19.89;86.74
9335;BME280;4706;41.844;26.082;2022-11-20T06:55:42;100444.75;;;19.93;86.30
9335;BME280;4706;41.844;26.082;2022-11-20T06:58:07;100444.38;;;19.94;86.20
9335;BME280;4706;41.844;26.082;2022-11-20T07:00:33;100442.31;;;19.91;85.98
9335;BME280;4706;41.844;26.082;2022-11-20T07:03:03;100449.16;;;19.94;85.26
9335;BME280;4706;41.844;26.082;2022-11-20T07:05:29;100449.28;;;20.01;84.69
9335;BME280;4706;41.844;26.082;2022-11-20T07:07:56;100450.19;;;20.05;84.95
9335;BME280;4706;41.844;26.082;2022-11-20T07:10:21;100453.06;;;20.08;84.87
9335;BME280;4706;41.844;26.082;2022-11-20T07:12:51;100457.47;;;20.09;84.72
9335;BME280;4706;41.844;26.082;2022-11-20T07:15:17;100460.31;;;20.13;84.30
9335;BME280;4706;41.844;26.082;2022-11-20T07:17:43;100458.75;;;20.16;84.27
9335;BME280;4706;41.844;26.082;2022-11-20T07:20:09;100458.84;;;20.19;84.11
9335;BME280;4706;41.844;26.082;2022-11-20T07:22:35;100457.69;;;20.20;84.05
9335;BME280;4706;41.844;26.082;2022-11-20T07:25:01;100437.25;;;20.16;83.47
9335;BME280;4706;41.844;26.082;2022-11-20T07:27:27;100445.38;;;20.25;83.67
9335;BME280;4706;41.844;26.082;2022-11-20T07:29:53;100436.50;;;20.19;83.39
9335;BME280;4706;41.844;26.082;2022-11-20T07:32:18;100444.22;;;20.26;83.34
9335;BME280;4706;41.844;26.082;2022-11-20T07:34:44;100430.91;;;20.19;83.33
9335;BME280;4706;41.844;26.082;2022-11-20T07:37:09;100442.22;;;20.26;83.62
9335;BME280;4706;41.844;26.082;2022-11-20T07:39:35;100448.25;;;20.28;83.14
9335;BME280;4706;41.844;26.082;2022-11-20T07:42:00;100449.13;;;20.32;82.98
9335;BME280;4706;41.844;26.082;2022-11-20T07:44:26;100449.13;;;20.32;82.38
9335;BME280;4706;41.844;26.082;2022-11-20T07:46:51;100451.19;;;20.35;82.73
9335;BME280;4706;41.844;26.082;2022-11-20T07:49:17;100450.81;;;20.37;82.59
9335;BME280;4706;41.844;26.082;2022-11-20T07:51:42;100456.03;;;20.38;82.72
9335;BME280;4706;41.844;26.082;2022-11-20T07:54:08;100454.06;;;20.39;82.38
9335;BME280;4706;41.844;26.082;2022-11-20T07:56:33;100466.03;;;20.40;82.67
9335;BME280;4706;41.844;26.082;2022-11-20T07:58:59;100454.13;;;20.43;82.49
9335;BME280;4706;41.844;26.082;2022-11-20T08:01:25;100462.13;;;20.44;82.42
9335;BME280;4706;41.844;26.082;2022-11-20T08:03:50;100467.31;;;20.46;82.28
9335;BME280;4706;41.844;26.082;2022-11-20T08:06:15;100461.38;;;20.47;82.47
9335;BME280;4706;41.844;26.082;2022-11-20T08:08:41;100466.25;;;20.50;81.66
9335;BME280;4706;41.844;26.082;2022-11-20T08:11:06;100469.06;;;20.50;81.36
9335;BME280;4706;41.844;26.082;2022-11-20T08:13:50;100464.34;;;20.54;81.92
9335;BME280;4706;41.844;26.082;2022-11-20T08:16:34;100471.03;;;20.50;82.29
9335;BME280;4706;41.844;26.082;2022-11-20T08:19:00;100467.88;;;20.51;82.13
9335;BME280;4706;41.844;26.082;2022-11-20T08:21:25;100468.25;;;20.50;82.80
9335;BME280;4706;41.844;26.082;2022-11-20T08:23:51;100464.53;;;20.46;83.91
9335;BME280;4706;41.844;26.082;2022-11-20T08:26:16;100469.63;;;20.40;84.58
9335;BME280;4706;41.844;26.082;2022-11-20T08:28:41;100484.41;;;20.41;84.54
9335;BME280;4706;41.844;26.082;2022-11-20T08:31:07;100469.09;;;20.34;84.92
9335;BME280;4706;41.844;26.082;2022-11-20T08:33:32;100471.53;;;20.36;84.95
9335;BME280;4706;41.844;26.082;2022-11-20T08:36:00;100461.47;;;20.31;85.50
9335;BME280;4706;41.844;26.082;2022-11-20T08:38:26;100466.13;;;20.24;88.01
9335;BME280;4706;41.844;26.082;2022-11-20T08:40:51;100460.53;;;20.24;88.53
9335;BME280;4706;41.844;26.082;2022-11-20T08:43:35;100469.00;;;20.27;88.23
9335;BME280;4706;41.844;26.082;2022-11-20T08:46:00;100459.44;;;20.28;88.03
9335;BME280;4706;41.844;26.082;2022-11-20T08:48:26;100452.97;;;20.24;88.39
9335;BME280;4706;41.844;26.082;2022-11-20T08:50:51;100465.88;;;20.32;87.97
9335;BME280;4706;41.844;26.082;2022-11-20T08:53:17;100464.34;;;20.35;87.45
9335;BME280;4706;41.844;26.082;2022-11-20T08:55:42;100452.88;;;20.40;88.14
9335;BME280;4706;41.844;26.082;2022-11-20T08:58:08;100452.00;;;20.36;89.27
9335;BME280;4706;41.844;26.082;2022-11-20T09:00:34;100447.69;;;20.42;89.26
9335;BME280;4706;41.844;26.082;2022-11-20T09:03:00;100433.69;;;20.38;89.62
9335;BME280;4706;41.844;26.082;2022-11-20T09:05:26;100438.16;;;20.43;90.14
9335;BME280;4706;41.844;26.082;2022-11-20T09:07:56;100426.53;;;20.41;90.86
9335;BME280;4706;41.844;26.082;2022-11-20T09:10:22;100426.19;;;20.43;91.35
9335;BME280;4706;41.844;26.082;2022-11-20T09:12:51;100429.72;;;20.40;89.94
9335;BME280;4706;41.844;26.082;2022-11-20T09:15:18;100418.09;;;20.37;88.90
9335;BME280;4706;41.844;26.082;2022-11-20T09:17:52;100377.84;;;20.19;86.93
9335;BME280;4706;41.844;26.082;2022-11-20T09:20:17;100404.25;;;20.45;87.07
9335;BME280;4706;41.844;26.082;2022-11-20T09:22:43;100388.22;;;20.42;87.45
9335;BME280;4706;41.844;26.082;2022-11-20T09:25:08;100396.66;;;20.45;86.61
9335;BME280;4706;41.844;26.082;2022-11-20T09:27:34;100387.94;;;20.47;87.22
9335;BME280;4706;41.844;26.082;2022-11-20T09:30:01;100386.75;;;20.48;87.37
9335;BME280;4706;41.844;26.082;2022-11-20T09:32:26;100361.53;;;20.44;89.02
9335;BME280;4706;41.844;26.082;2022-11-20T09:34:52;100363.22;;;20.49;89.59
9335;BME280;4706;41.844;26.082;2022-11-20T09:37:17;100362.09;;;20.50;89.74
9335;BME280;4706;41.844;26.082;2022-11-20T09:39:43;100354.13;;;20.52;90.29
9335;BME280;4706;41.844;26.082;2022-11-20T09:45:01;100359.78;;;20.55;89.44
9335;BME280;4706;41.844;26.082;2022-11-20T09:55:56;100354.53;;;20.77;84.25
9335;BME280;4706;41.844;26.082;2022-11-20T09:58:32;100343.72;;;20.75;84.10
9335;BME280;4706;41.844;26.082;2022-11-20T10:01:10;100346.25;;;20.84;81.73
9335;BME280;4706;41.844;26.082;2022-11-20T10:03:39;100349.53;;;20.90;83.61
9335;BME280;4706;41.844;26.082;2022-11-20T10:06:12;100346.38;;;20.91;83.98
9335;BME280;4706;41.844;26.082;2022-11-20T10:11:26;100352.31;;;20.90;85.22
9335;BME280;4706;41.844;26.082;2022-11-20T10:17:12;100349.16;;;20.91;82.19
9335;BME280;4706;41.844;26.082;2022-11-20T10:25:24;100347.75;;;21.04;79.39
9335;BME280;4706;41.844;26.082;2022-11-20T10:30:59;100351.66;;;21.26;78.75
9335;BME280;4706;41.844;26.082;2022-11-20T10:33:27;100367.00;;;21.36;76.95
9335;BME280;4706;41.844;26.082;2022-11-20T10:38:49;100360.56;;;21.66;76.09
9335;BME280;4706;41.844;26.082;2022-11-20T10:41:23;100367.03;;;21.70;74.04
9335;BME280;4706;41.844;26.082;2022-11-20T10:43:59;100360.31;;;21.74;73.97
9335;BME280;4706;41.844;26.082;2022-11-20T10:46:37;100365.59;;;21.83;73.04
9335;BME280;4706;41.844;26.082;2022-11-20T10:49:14;100345.25;;;21.86;72.23
9335;BME280;4706;41.844;26.082;2022-11-20T10:54:27;100357.59;;;22.19;71.62
9335;BME280;4706;41.844;26.082;2022-11-20T10:57:00;100357.63;;;22.22;70.96
9335;BME280;4706;41.844;26.082;2022-11-20T10:59:51;100354.03;;;22.22;70.40
9335;BME280;4706;41.844;26.082;2022-11-20T11:02:32;100347.13;;;22.12;70.86
9335;BME280;4706;41.844;26.082;2022-11-20T11:05:54;100361.59;;;22.18;70.30
9335;BME280;4706;41.844;26.082;2022-11-20T11:07:57;100339.97;;;22.18;70.93
9335;BME280;4706;41.844;26.082;2022-11-20T11:10:51;100348.13;;;22.30;69.31
9335;BME280;4706;41.844;26.082;2022-11-20T11:15:47;100356.88;;;22.25;69.79
9335;BME280;4706;41.844;26.082;2022-11-20T11:18:23;100350.41;;;22.21;70.56
9335;BME280;4706;41.844;26.082;2022-11-20T11:20:53;100331.22;;;22.20;70.56
9335;BME280;4706;41.844;26.082;2022-11-20T11:23:30;100350.09;;;22.30;70.17
9335;BME280;4706;41.844;26.082;2022-11-20T11:26:01;100333.41;;;22.44;69.90
9335;BME280;4706;41.844;26.082;2022-11-20T11:28:27;100346.28;;;22.52;69.55
9335;BME280;4706;41.844;26.082;2022-11-20T11:30:54;100320.63;;;22.47;69.40
9335;BME280;4706;41.844;26.082;2022-11-20T11:33:22;100316.22;;;22.46;69.25
9335;BME280;4706;41.844;26.082;2022-11-20T11:35:50;100315.81;;;22.44;69.61
9335;BME280;4706;41.844;26.082;2022-11-20T11:38:43;100314.34;;;22.61;69.31
9335;BME280;4706;41.844;26.082;2022-11-20T11:41:20;100292.88;;;22.86;68.32
9335;BME280;4706;41.844;26.082;2022-11-20T11:43:54;100294.59;;;23.01;67.06
9335;BME280;4706;41.844;26.082;2022-11-20T11:46:41;100276.53;;;22.92;66.85
9335;BME280;4706;41.844;26.082;2022-11-20T11:49:16;100274.81;;;22.80;67.61
9335;BME280;4706;41.844;26.082;2022-11-20T11:56:55;100261.53;;;22.70;67.70
9335;BME280;4706;41.844;26.082;2022-11-20T11:59:29;100272.78;;;22.73;67.45
9335;BME280;4706;41.844;26.082;2022-11-20T12:02:03;100279.50;;;22.62;67.83
9335;BME280;4706;41.844;26.082;2022-11-20T12:04:54;100263.50;;;22.62;68.21
9335;BME280;4706;41.844;26.082;2022-11-20T12:07:38;100266.81;;;22.82;67.26
9335;BME280;4706;41.844;26.082;2022-11-20T12:10:12;100266.91;;;22.93;67.04
9335;BME280;4706;41.844;26.082;2022-11-20T12:12:44;100260.19;;;23.15;66.46
9335;BME280;4706;41.844;26.082;2022-11-20T12:15:11;100261.47;;;23.29;64.98
9335;BME280;4706;41.844;26.082;2022-11-20T12:17:41;100267.06;;;23.21;64.00
9335;BME280;4706;41.844;26.082;2022-11-20T12:20:15;100269.91;;;23.32;64.65
9335;BME280;4706;41.844;26.082;2022-11-20T12:22:55;100267.53;;;23.45;63.24
9335;BME280;4706;41.844;26.082;2022-11-20T12:25:27;100264.31;;;23.46;63.68
9335;BME280;4706;41.844;26.082;2022-11-20T12:30:25;100252.72;;;23.51;63.62
9335;BME280;4706;41.844;26.082;2022-11-20T12:40:44;100224.97;;;23.25;63.39
9335;BME280;4706;41.844;26.082;2022-11-20T12:43:23;100235.38;;;23.17;63.33
9335;BME280;4706;41.844;26.082;2022-11-20T12:46:41;100236.19;;;23.21;63.47
9335;BME280;4706;41.844;26.082;2022-11-20T12:49:42;100234.94;;;23.15;63.32
9335;BME280;4706;41.844;26.082;2022-11-20T12:55:11;100242.56;;;23.15;63.27
9335;BME280;4706;41.844;26.082;2022-11-20T12:57:47;100234.16;;;23.18;63.50
9335;BME280;4706;41.844;26.082;2022-11-20T13:00:18;100233.75;;;23.16;62.97
9335;BME280;4706;41.844;26.082;2022-11-20T13:06:12;100246.59;;;23.17;63.82
9335;BME280;4706;41.844;26.082;2022-11-20T13:08:41;100261.41;;;23.14;63.19
9335;BME280;4706;41.844;26.082;2022-11-20T13:11:44;100267.41;;;23.16;63.55
9335;BME280;4706;41.844;26.082;2022-11-20T13:14:38;100260.97;;;23.09;64.18
9335;BME280;4706;41.844;26.082;2022-11-20T13:19:54;100252.94;;;23.03;64.07
9335;BME280;4706;41.844;26.082;2022-11-20T13:22:25;100242.09;;;22.98;64.33
9335;BME280;4706;41.844;26.082;2022-11-20T13:24:51;100250.88;;;22.93;64.78
9335;BME280;4706;41.844;26.082;2022-11-20T13:27:19;100244.41;;;22.89;64.20
9335;BME280;4706;41.844;26.082;2022-11-20T13:29:59;100250.44;;;22.88;64.28
9335;BME280;4706;41.844;26.082;2022-11-20T13:32:27;100242.81;;;22.88;63.96
9335;BME280;4706;41.844;26.082;2022-11-20T13:35:00;100251.63;;;22.90;64.30
9335;BME280;4706;41.844;26.082;2022-11-20T13:37:36;100260.03;;;22.87;64.64
9335;BME280;4706;41.844;26.082;2022-11-20T13:43:26;100252.72;;;22.71;64.84
9335;BME280;4706;41.844;26.082;2022-11-20T13:45:32;100259.94;;;22.69;65.33
9335;BME280;4706;41.844;26.082;2022-11-20T13:48:04;100245.06;;;22.61;65.65
9335;BME280;4706;41.844;26.082;2022-11-20T13:56:04;100255.50;;;22.64;66.42
9335;BME280;4706;41.844;26.082;2022-11-20T14:01:32;100259.75;;;22.44;66.50
9335;BME280;4706;41.844;26.082;2022-11-20T14:04:06;100242.03;;;22.29;67.21
9335;BME280;4706;41.844;26.082;2022-11-20T14:06:51;100251.66;;;22.32;67.30
9335;BME280;4706;41.844;26.082;2022-11-20T14:09:31;100257.25;;;22.28;67.90
9335;BME280;4706;41.844;26.082;2022-11-20T14:11:58;100252.41;;;22.25;68.15
9335;BME280;4706;41.844;26.082;2022-11-20T14:14:28;100249.19;;;22.23;68.67
9335;BME280;4706;41.844;26.082;2022-11-20T14:17:24;100242.75;;;22.19;68.55
9335;BME280;4706;41.844;26.082;2022-11-20T14:19:51;100250.63;;;22.06;69.02
9335;BME280;4706;41.844;26.082;2022-11-20T14:22:26;100234.94;;;21.98;69.38
9335;BME280;4706;41.844;26.082;2022-11-20T14:25:06;100236.88;;;21.90;69.60
9335;BME280;4706;41.844;26.082;2022-11-20T14:27:40;100230.38;;;21.79;70.37
9335;BME280;4706;41.844;26.082;2022-11-20T14:30:13;100222.34;;;21.77;70.73